sensor_id;sensor_type;location;lat;lon;timestamp;P1;durP1;ratioP1;P2;durP2;ratioP2
13197;SDS011;6664;52.514;13.440;2022-12-07T00:01:15;8.53;;;4.47;;
13197;SDS011;6664;52.514;13.440;2022-12-07T00:04:07;6.77;;;4.60;;
13197;SDS011;6664;52.514;13.440;2022-12-07T00:06:59;7.87;;;5.10;;
13197;SDS011;6664;52.514;13.440;2022-12-07T00:09:44;7.10;;;4.77;;
13197;SDS011;6664;52.514;13.440;2022-12-07T00:12:32;4.40;;;3.73;;
13197;SDS011;6664;52.514;13.440;2022-12-07T00:15:20;5.90;;;4.63;;
13197;SDS011;6664;52.514;13.440;2022-12-07T00:18:06;4.87;;;3.90;;
13197;SDS011;6664;52.514;13.440;2022-12-07T00:20:51;5.07;;;3.90;;
13197;SDS011;6664;52.514;13.440;2022-12-07T00:23:39;7.27;;;3.77;;
13197;SDS011;6664;52.514;13.440;2022-12-07T00:26:30;6.23;;;4.10;;
13197;SDS011;6664;52.514;13.440;2022-12-07T00:29:20;4.20;;;3.27;;
13197;SDS011;6664;52.514;13.440;2022-12-07T00:32:12;5.13;;;3.60;;
13197;SDS011;6664;52.514;13.440;2022-12-07T00:34:58;6.77;;;4.23;;
13197;SDS011;6664;52.514;13.440;2022-12-07T00:37:46;5.93;;;4.23;;
13197;SDS011;6664;52.514;13.440;2022-12-07T00:40:31;6.10;;;4.33;;
13197;SDS011;6664;52.514;13.440;2022-12-07T00:43:17;5.70;;;3.73;;
13197;SDS011;6664;52.514;13.440;2022-12-07T00:46:02;7.27;;;4.50;;
13197;SDS011;6664;52.514;13.440;2022-12-07T00:48:51;5.40;;;3.50;;
13197;SDS011;6664;52.514;13.440;2022-12-07T00:51:37;5.83;;;3.70;;
13197;SDS011;6664;52.514;13.440;2022-12-07T00:54:24;5.77;;;4.00;;
13197;SDS011;6664;52.514;13.440;2022-12-07T00:57:12;6.40;;;4.23;;
13197;SDS011;6664;52.514;13.440;2022-12-07T00:59:57;6.00;;;4.00;;
13197;SDS011;6664;52.514;13.440;2022-12-07T01:02:45;6.13;;;4.13;;
13197;SDS011;6664;52.514;13.440;2022-12-07T01:05:33;5.03;;;4.47;;
13197;SDS011;6664;52.514;13.440;2022-12-07T01:08:19;4.80;;;3.87;;
13197;SDS011;6664;52.514;13.440;2022-12-07T01:11:06;4.90;;;3.57;;
13197;SDS011;6664;52.514;13.440;2022-12-07T01:13:55;6.00;;;4.27;;
13197;SDS011;6664;52.514;13.440;2022-12-07T01:16:42;4.90;;;3.73;;
13197;SDS011;6664;52.514;13.440;2022-12-07T01:19:30;6.50;;;4.30;;
13197;SDS011;6664;52.514;13.440;2022-12-07T01:22:15;5.93;;;3.90;;
13197;SDS011;6664;52.514;13.440;2022-12-07T01:25:01;5.50;;;4.00;;
13197;SDS011;6664;52.514;13.440;2022-12-07T01:27:46;7.70;;;4.93;;
13197;SDS011;6664;52.514;13.440;2022-12-07T01:30:33;4.73;;;3.30;;
13197;SDS011;6664;52.514;13.440;2022-12-07T01:33:18;4.37;;;3.60;;
13197;SDS011;6664;52.514;13.440;2022-12-07T01:36:05;4.13;;;3.20;;
13197;SDS011;6664;52.514;13.440;2022-12-07T01:38:56;3.47;;;3.03;;
13197;SDS011;6664;52.514;13.440;2022-12-07T01:41:44;3.80;;;2.90;;
13197;SDS011;6664;52.514;13.440;2022-12-07T01:44:30;3.60;;;3.20;;
13197;SDS011;6664;52.514;13.440;2022-12-07T01:47:18;4.23;;;2.80;;
13197;SDS011;6664;52.514;13.440;2022-12-07T01:50:06;4.50;;;3.20;;
13197;SDS011;6664;52.514;13.440;2022-12-07T01:52:51;2.87;;;2.60;;
13197;SDS011;6664;52.514;13.440;2022-12-07T01:55:40;3.60;;;2.70;;
13197;SDS011;6664;52.514;13.440;2022-12-07T01:58:29;3.50;;;3.20;;
13197;SDS011;6664;52.514;13.440;2022-12-07T02:01:14;2.90;;;2.50;;
13197;SDS011;6664;52.514;13.440;2022-12-07T02:04:00;2.80;;;2.40;;
13197;SDS011;6664;52.514;13.440;2022-12-07T02:06:46;2.50;;;2.27;;
13197;SDS011;6664;52.514;13.440;2022-12-07T02:09:32;2.73;;;2.30;;
13197;SDS011;6664;52.514;13.440;2022-12-07T02:12:18;4.00;;;2.80;;
13197;SDS011;6664;52.514;13.440;2022-12-07T02:15:05;4.53;;;2.90;;
13197;SDS011;6664;52.514;13.440;2022-12-07T02:17:55;2.67;;;2.47;;
13197;SDS011;6664;52.514;13.440;2022-12-07T02:30:04;3.37;;;3.07;;
13197;SDS011;6664;52.514;13.440;2022-12-07T02:33:06;2.40;;;2.20;;
13197;SDS011;6664;52.514;13.440;2022-12-07T02:38:50;3.60;;;2.57;;
13197;SDS011;6664;52.514;13.440;2022-12-07T02:41:43;3.40;;;3.10;;
13197;SDS011;6664;52.514;13.440;2022-12-07T02:44:33;3.47;;;3.10;;
13197;SDS011;6664;52.514;13.440;2022-12-07T02:47:20;3.30;;;3.00;;
13197;SDS011;6664;52.514;13.440;2022-12-07T02:50:09;3.07;;;2.83;;
13197;SDS011;6664;52.514;13.440;2022-12-07T02:52:56;3.47;;;2.73;;
13197;SDS011;6664;52.514;13.440;2022-12-07T02:55:42;5.80;;;2.83;;
13197;SDS011;6664;52.514;13.440;2022-12-07T02:58:38;4.30;;;3.40;;
13197;SDS011;6664;52.514;13.440;2022-12-07T03:04:45;4.80;;;4.10;;
13197;SDS011;6664;52.514;13.440;2022-12-07T03:08:14;3.43;;;3.07;;
13197;SDS011;6664;52.514;13.440;2022-12-07T03:11:05;2.87;;;2.67;;
13197;SDS011;6664;52.514;13.440;2022-12-07T03:14:01;3.37;;;3.00;;
13197;SDS011;6664;52.514;13.440;2022-12-07T03:17:18;4.73;;;3.93;;
13197;SDS011;6664;52.514;13.440;2022-12-07T03:20:12;5.30;;;3.37;;
13197;SDS011;6664;52.514;13.440;2022-12-07T03:23:03;4.83;;;3.73;;
13197;SDS011;6664;52.514;13.440;2022-12-07T03:25:52;4.07;;;3.67;;
13197;SDS011;6664;52.514;13.440;2022-12-07T03:28:46;4.43;;;3.00;;
13197;SDS011;6664;52.514;13.440;2022-12-07T03:31:38;4.67;;;3.70;;
13197;SDS011;6664;52.514;13.440;2022-12-07T03:34:30;3.97;;;3.57;;
13197;SDS011;6664;52.514;13.440;2022-12-07T03:37:36;3.60;;;3.20;;
13197;SDS011;6664;52.514;13.440;2022-12-07T03:40:43;5.80;;;3.87;;
13197;SDS011;6664;52.514;13.440;2022-12-07T03:43:37;3.40;;;3.10;;
13197;SDS011;6664;52.514;13.440;2022-12-07T03:55:00;5.83;;;3.37;;
13197;SDS011;6664;52.514;13.440;2022-12-07T03:57:47;15.40;;;3.90;;
13197;SDS011;6664;52.514;13.440;2022-12-07T04:00:36;5.70;;;3.60;;
13197;SDS011;6664;52.514;13.440;2022-12-07T04:03:22;4.07;;;3.40;;
13197;SDS011;6664;52.514;13.440;2022-12-07T04:06:08;5.60;;;3.93;;
13197;SDS011;6664;52.514;13.440;2022-12-07T04:08:54;6.10;;;3.90;;
13197;SDS011;6664;52.514;13.440;2022-12-07T04:11:40;6.10;;;3.70;;
13197;SDS011;6664;52.514;13.440;2022-12-07T04:14:28;5.70;;;3.73;;
13197;SDS011;6664;52.514;13.440;2022-12-07T04:17:13;5.73;;;3.93;;
13197;SDS011;6664;52.514;13.440;2022-12-07T04:19:59;7.10;;;5.27;;
13197;SDS011;6664;52.514;13.440;2022-12-07T04:22:45;5.37;;;4.47;;
13197;SDS011;6664;52.514;13.440;2022-12-07T04:25:31;8.00;;;5.00;;
13197;SDS011;6664;52.514;13.440;2022-12-07T04:28:16;6.10;;;3.97;;
13197;SDS011;6664;52.514;13.440;2022-12-07T04:31:04;9.13;;;5.03;;
13197;SDS011;6664;52.514;13.440;2022-12-07T04:33:49;7.80;;;4.73;;
13197;SDS011;6664;52.514;13.440;2022-12-07T04:36:35;6.60;;;4.20;;
13197;SDS011;6664;52.514;13.440;2022-12-07T04:39:24;8.00;;;4.93;;
13197;SDS011;6664;52.514;13.440;2022-12-07T04:42:11;7.50;;;5.50;;
13197;SDS011;6664;52.514;13.440;2022-12-07T04:44:57;10.17;;;6.33;;
13197;SDS011;6664;52.514;13.440;2022-12-07T04:47:43;6.80;;;5.07;;
13197;SDS011;6664;52.514;13.440;2022-12-07T04:50:28;8.93;;;5.63;;
13197;SDS011;6664;52.514;13.440;2022-12-07T04:53:14;9.63;;;6.13;;
13197;SDS011;6664;52.514;13.440;2022-12-07T04:56:03;6.83;;;4.80;;
13197;SDS011;6664;52.514;13.440;2022-12-07T04:58:51;8.80;;;5.67;;
13197;SDS011;6664;52.514;13.440;2022-12-07T05:01:37;9.10;;;5.43;;
13197;SDS011;6664;52.514;13.440;2022-12-07T05:04:23;12.37;;;6.20;;
13197;SDS011;6664;52.514;13.440;2022-12-07T05:07:09;9.87;;;6.43;;
13197;SDS011;6664;52.514;13.440;2022-12-07T05:09:56;9.17;;;5.90;;
13197;SDS011;6664;52.514;13.440;2022-12-07T05:12:42;14.20;;;7.37;;
13197;SDS011;6664;52.514;13.440;2022-12-07T05:15:28;9.60;;;6.00;;
13197;SDS011;6664;52.514;13.440;2022-12-07T05:18:14;9.37;;;6.37;;
13197;SDS011;6664;52.514;13.440;2022-12-07T05:21:02;9.60;;;6.30;;
13197;SDS011;6664;52.514;13.440;2022-12-07T05:23:47;9.83;;;6.70;;
13197;SDS011;6664;52.514;13.440;2022-12-07T05:26:35;11.37;;;7.20;;
13197;SDS011;6664;52.514;13.440;2022-12-07T05:29:20;11.73;;;8.13;;
13197;SDS011;6664;52.514;13.440;2022-12-07T05:32:06;11.47;;;7.20;;
13197;SDS011;6664;52.514;13.440;2022-12-07T05:34:54;13.43;;;6.90;;
13197;SDS011;6664;52.514;13.440;2022-12-07T05:37:41;10.30;;;7.30;;
13197;SDS011;6664;52.514;13.440;2022-12-07T05:40:27;13.50;;;8.03;;
13197;SDS011;6664;52.514;13.440;2022-12-07T05:43:14;10.90;;;6.93;;
13197;SDS011;6664;52.514;13.440;2022-12-07T05:46:01;12.23;;;7.87;;
13197;SDS011;6664;52.514;13.440;2022-12-07T05:48:47;12.57;;;7.00;;
13197;SDS011;6664;52.514;13.440;2022-12-07T05:51:34;13.03;;;7.93;;
13197;SDS011;6664;52.514;13.440;2022-12-07T05:54:19;15.03;;;7.37;;
13197;SDS011;6664;52.514;13.440;2022-12-07T05:57:06;15.30;;;8.20;;
13197;SDS011;6664;52.514;13.440;2022-12-07T05:59:52;10.10;;;5.83;;
13197;SDS011;6664;52.514;13.440;2022-12-07T06:02:37;15.60;;;9.40;;
13197;SDS011;6664;52.514;13.440;2022-12-07T06:05:23;10.60;;;7.17;;
13197;SDS011;6664;52.514;13.440;2022-12-07T06:08:10;21.83;;;7.90;;
13197;SDS011;6664;52.514;13.440;2022-12-07T06:10:56;11.60;;;8.20;;
13197;SDS011;6664;52.514;13.440;2022-12-07T06:14:00;13.83;;;8.27;;
13197;SDS011;6664;52.514;13.440;2022-12-07T06:16:46;19.93;;;7.87;;
13197;SDS011;6664;52.514;13.440;2022-12-07T06:19:33;15.03;;;7.90;;
13197;SDS011;6664;52.514;13.440;2022-12-07T06:22:18;13.83;;;8.33;;
13197;SDS011;6664;52.514;13.440;2022-12-07T06:25:06;14.30;;;8.40;;
13197;SDS011;6664;52.514;13.440;2022-12-07T06:27:54;12.83;;;7.83;;
13197;SDS011;6664;52.514;13.440;2022-12-07T06:30:40;18.23;;;7.67;;
13197;SDS011;6664;52.514;13.440;2022-12-07T06:33:28;12.20;;;6.93;;
13197;SDS011;6664;52.514;13.440;2022-12-07T06:36:16;21.30;;;7.60;;
13197;SDS011;6664;52.514;13.440;2022-12-07T06:39:09;11.93;;;7.30;;
13197;SDS011;6664;52.514;13.440;2022-12-07T06:41:56;17.50;;;7.90;;
13197;SDS011;6664;52.514;13.440;2022-12-07T06:44:42;12.03;;;7.30;;
13197;SDS011;6664;52.514;13.440;2022-12-07T06:47:28;12.13;;;7.70;;
13197;SDS011;6664;52.514;13.440;2022-12-07T06:50:26;15.50;;;7.53;;
13197;SDS011;6664;52.514;13.440;2022-12-07T06:53:12;10.30;;;6.80;;
13197;SDS011;6664;52.514;13.440;2022-12-07T06:56:00;12.13;;;7.00;;
13197;SDS011;6664;52.514;13.440;2022-12-07T06:58:48;14.43;;;8.53;;
13197;SDS011;6664;52.514;13.440;2022-12-07T07:01:36;12.23;;;7.60;;
13197;SDS011;6664;52.514;13.440;2022-12-07T07:04:24;12.57;;;7.73;;
13197;SDS011;6664;52.514;13.440;2022-12-07T07:07:09;13.30;;;8.10;;
13197;SDS011;6664;52.514;13.440;2022-12-07T07:09:55;14.90;;;7.47;;
13197;SDS011;6664;52.514;13.440;2022-12-07T07:12:43;12.73;;;7.97;;
13197;SDS011;6664;52.514;13.440;2022-12-07T07:15:29;15.90;;;8.07;;
13197;SDS011;6664;52.514;13.440;2022-12-07T07:18:16;15.70;;;8.67;;
13197;SDS011;6664;52.514;13.440;2022-12-07T07:21:02;13.90;;;8.87;;
13197;SDS011;6664;52.514;13.440;2022-12-07T07:23:48;13.20;;;7.80;;
13197;SDS011;6664;52.514;13.440;2022-12-07T07:26:36;14.87;;;8.00;;
13197;SDS011;6664;52.514;13.440;2022-12-07T07:29:24;13.50;;;7.93;;
13197;SDS011;6664;52.514;13.440;2022-12-07T07:32:10;9.80;;;7.17;;
13197;SDS011;6664;52.514;13.440;2022-12-07T07:34:55;8.53;;;5.93;;
13197;SDS011;6664;52.514;13.440;2022-12-07T07:37:43;11.90;;;7.27;;
13197;SDS011;6664;52.514;13.440;2022-12-07T07:40:28;13.03;;;7.10;;
13197;SDS011;6664;52.514;13.440;2022-12-07T07:43:14;10.70;;;6.37;;
13197;SDS011;6664;52.514;13.440;2022-12-07T07:45:59;14.90;;;6.20;;
13197;SDS011;6664;52.514;13.440;2022-12-07T07:48:48;11.33;;;6.40;;
13197;SDS011;6664;52.514;13.440;2022-12-07T07:51:34;9.37;;;6.27;;
13197;SDS011;6664;52.514;13.440;2022-12-07T07:54:19;7.67;;;5.20;;
13197;SDS011;6664;52.514;13.440;2022-12-07T07:57:04;8.00;;;5.13;;
13197;SDS011;6664;52.514;13.440;2022-12-07T07:59:50;9.17;;;5.63;;
13197;SDS011;6664;52.514;13.440;2022-12-07T08:02:35;11.10;;;5.80;;
13197;SDS011;6664;52.514;13.440;2022-12-07T08:05:21;6.27;;;4.90;;
13197;SDS011;6664;52.514;13.440;2022-12-07T08:08:06;10.93;;;4.70;;
13197;SDS011;6664;52.514;13.440;2022-12-07T08:10:52;8.07;;;4.33;;
13197;SDS011;6664;52.514;13.440;2022-12-07T08:13:37;6.57;;;4.80;;
13197;SDS011;6664;52.514;13.440;2022-12-07T08:16:28;8.10;;;4.90;;
13197;SDS011;6664;52.514;13.440;2022-12-07T08:19:15;5.50;;;4.77;;
13197;SDS011;6664;52.514;13.440;2022-12-07T08:22:03;6.80;;;3.83;;
13197;SDS011;6664;52.514;13.440;2022-12-07T08:24:49;4.70;;;3.20;;
13197;SDS011;6664;52.514;13.440;2022-12-07T08:27:35;4.00;;;3.57;;
13197;SDS011;6664;52.514;13.440;2022-12-07T08:30:20;12.93;;;4.60;;
13197;SDS011;6664;52.514;13.440;2022-12-07T08:33:06;6.07;;;4.20;;
13197;SDS011;6664;52.514;13.440;2022-12-07T08:35:53;3.60;;;3.20;;
13197;SDS011;6664;52.514;13.440;2022-12-07T08:38:39;3.87;;;3.53;;
13197;SDS011;6664;52.514;13.440;2022-12-07T08:41:47;3.40;;;3.10;;
13197;SDS011;6664;52.514;13.440;2022-12-07T08:44:33;6.17;;;3.13;;
13197;SDS011;6664;52.514;13.440;2022-12-07T08:47:19;2.80;;;2.60;;
13197;SDS011;6664;52.514;13.440;2022-12-07T08:50:07;2.40;;;1.93;;
13197;SDS011;6664;52.514;13.440;2022-12-07T08:52:56;3.70;;;2.10;;
13197;SDS011;6664;52.514;13.440;2022-12-07T08:55:45;4.53;;;2.03;;
13197;SDS011;6664;52.514;13.440;2022-12-07T08:58:33;2.23;;;1.80;;
13197;SDS011;6664;52.514;13.440;2022-12-07T09:01:22;2.07;;;1.87;;
13197;SDS011;6664;52.514;13.440;2022-12-07T09:04:08;1.77;;;1.67;;
13197;SDS011;6664;52.514;13.440;2022-12-07T09:06:57;4.50;;;1.77;;
13197;SDS011;6664;52.514;13.440;2022-12-07T09:09:44;1.73;;;1.63;;
13197;SDS011;6664;52.514;13.440;2022-12-07T09:12:30;1.53;;;1.43;;
13197;SDS011;6664;52.514;13.440;2022-12-07T09:15:18;1.60;;;1.50;;
13197;SDS011;6664;52.514;13.440;2022-12-07T09:18:05;1.40;;;1.33;;
13197;SDS011;6664;52.514;13.440;2022-12-07T09:20:51;0.97;;;0.97;;
13197;SDS011;6664;52.514;13.440;2022-12-07T09:23:38;1.40;;;1.30;;
13197;SDS011;6664;52.514;13.440;2022-12-07T09:26:25;1.77;;;0.90;;
13197;SDS011;6664;52.514;13.440;2022-12-07T09:29:11;0.90;;;0.90;;
13197;SDS011;6664;52.514;13.440;2022-12-07T09:31:59;1.20;;;1.20;;
13197;SDS011;6664;52.514;13.440;2022-12-07T09:34:53;1.40;;;1.30;;
13197;SDS011;6664;52.514;13.440;2022-12-07T09:37:40;1.27;;;1.27;;
13197;SDS011;6664;52.514;13.440;2022-12-07T09:40:26;1.10;;;1.10;;
13197;SDS011;6664;52.514;13.440;2022-12-07T09:43:14;1.10;;;1.10;;
13197;SDS011;6664;52.514;13.440;2022-12-07T09:46:08;1.10;;;1.10;;
13197;SDS011;6664;52.514;13.440;2022-12-07T09:49:00;1.20;;;1.10;;
13197;SDS011;6664;52.514;13.440;2022-12-07T09:51:46;1.10;;;1.10;;
13197;SDS011;6664;52.514;13.440;2022-12-07T09:54:34;1.50;;;1.40;;
13197;SDS011;6664;52.514;13.440;2022-12-07T09:57:32;1.53;;;1.43;;
13197;SDS011;6664;52.514;13.440;2022-12-07T10:00:22;1.30;;;1.20;;
13197;SDS011;6664;52.514;13.440;2022-12-07T10:03:09;3.90;;;1.30;;
13197;SDS011;6664;52.514;13.440;2022-12-07T10:05:57;1.23;;;1.13;;
13197;SDS011;6664;52.514;13.440;2022-12-07T10:08:44;1.40;;;1.30;;
13197;SDS011;6664;52.514;13.440;2022-12-07T10:11:30;1.50;;;1.33;;
13197;SDS011;6664;52.514;13.440;2022-12-07T10:14:15;2.20;;;1.43;;
13197;SDS011;6664;52.514;13.440;2022-12-07T10:17:01;1.60;;;1.40;;
13197;SDS011;6664;52.514;13.440;2022-12-07T10:19:47;1.30;;;1.20;;
13197;SDS011;6664;52.514;13.440;2022-12-07T10:22:33;2.30;;;1.17;;
13197;SDS011;6664;52.514;13.440;2022-12-07T10:25:20;1.33;;;1.23;;
13197;SDS011;6664;52.514;13.440;2022-12-07T10:30:56;1.67;;;1.20;;
13197;SDS011;6664;52.514;13.440;2022-12-07T10:34:03;2.50;;;0.90;;
13197;SDS011;6664;52.514;13.440;2022-12-07T10:40:10;1.00;;;1.00;;
13197;SDS011;6664;52.514;13.440;2022-12-07T10:43:18;1.50;;;1.40;;
13197;SDS011;6664;52.514;13.440;2022-12-07T11:01:40;1.30;;;1.27;;
13197;SDS011;6664;52.514;13.440;2022-12-07T11:04:35;3.13;;;1.90;;
13197;SDS011;6664;52.514;13.440;2022-12-07T11:07:34;1.60;;;1.50;;
13197;SDS011;6664;52.514;13.440;2022-12-07T11:16:24;1.93;;;1.83;;
13197;SDS011;6664;52.514;13.440;2022-12-07T11:19:42;2.73;;;1.67;;
13197;SDS011;6664;52.514;13.440;2022-12-07T11:25:51;1.60;;;1.50;;
13197;SDS011;6664;52.514;13.440;2022-12-07T11:35:44;1.80;;;1.70;;
13197;SDS011;6664;52.514;13.440;2022-12-07T11:38:01;1.47;;;1.30;;
13197;SDS011;6664;52.514;13.440;2022-12-07T11:41:06;2.13;;;1.60;;
13197;SDS011;6664;52.514;13.440;2022-12-07T11:44:01;3.63;;;1.50;;
13197;SDS011;6664;52.514;13.440;2022-12-07T11:47:07;1.80;;;1.70;;
13197;SDS011;6664;52.514;13.440;2022-12-07T11:53:01;2.70;;;1.70;;
13197;SDS011;6664;52.514;13.440;2022-12-07T11:58:59;1.70;;;1.60;;
13197;SDS011;6664;52.514;13.440;2022-12-07T12:02:26;3.97;;;2.03;;
13197;SDS011;6664;52.514;13.440;2022-12-07T12:05:22;2.10;;;1.90;;
13197;SDS011;6664;52.514;13.440;2022-12-07T12:08:14;1.50;;;1.40;;
13197;SDS011;6664;52.514;13.440;2022-12-07T12:17:43;3.27;;;2.50;;
13197;SDS011;6664;52.514;13.440;2022-12-07T12:20:51;2.63;;;1.90;;
13197;SDS011;6664;52.514;13.440;2022-12-07T12:23:48;3.20;;;1.83;;
13197;SDS011;6664;52.514;13.440;2022-12-07T12:26:38;3.03;;;1.70;;
13197;SDS011;6664;52.514;13.440;2022-12-07T12:29:42;1.70;;;1.60;;
13197;SDS011;6664;52.514;13.440;2022-12-07T12:35:29;1.90;;;1.80;;
13197;SDS011;6664;52.514;13.440;2022-12-07T12:50:32;2.60;;;1.20;;
13197;SDS011;6664;52.514;13.440;2022-12-07T12:53:25;3.43;;;1.80;;
13197;SDS011;6664;52.514;13.440;2022-12-07T13:08:20;1.33;;;1.23;;
13197;SDS011;6664;52.514;13.440;2022-12-07T13:11:20;1.60;;;1.07;;
13197;SDS011;6664;52.514;13.440;2022-12-07T13:14:41;2.87;;;1.63;;
13197;SDS011;6664;52.514;13.440;2022-12-07T13:20:46;4.80;;;1.40;;
13197;SDS011;6664;52.514;13.440;2022-12-07T13:29:21;2.10;;;1.10;;
13197;SDS011;6664;52.514;13.440;2022-12-07T13:32:21;3.20;;;1.00;;
13197;SDS011;6664;52.514;13.440;2022-12-07T13:41:14;1.40;;;1.17;;
13197;SDS011;6664;52.514;13.440;2022-12-07T13:44:08;1.77;;;1.40;;
13197;SDS011;6664;52.514;13.440;2022-12-07T13:47:06;1.53;;;1.43;;
13197;SDS011;6664;52.514;13.440;2022-12-07T13:50:21;2.40;;;1.43;;
13197;SDS011;6664;52.514;13.440;2022-12-07T13:53:11;1.83;;;1.20;;
13197;SDS011;6664;52.514;13.440;2022-12-07T13:55:59;5.30;;;1.47;;
13197;SDS011;6664;52.514;13.440;2022-12-07T13:58:46;2.10;;;1.17;;
13197;SDS011;6664;52.514;13.440;2022-12-07T14:01:31;1.40;;;1.30;;
13197;SDS011;6664;52.514;13.440;2022-12-07T14:07:26;1.20;;;1.10;;
13197;SDS011;6664;52.514;13.440;2022-12-07T14:16:23;4.40;;;1.10;;
13197;SDS011;6664;52.514;13.440;2022-12-07T14:22:36;1.83;;;1.17;;
13197;SDS011;6664;52.514;13.440;2022-12-07T14:25:24;2.50;;;1.07;;
13197;SDS011;6664;52.514;13.440;2022-12-07T14:28:25;5.80;;;1.10;;
13197;SDS011;6664;52.514;13.440;2022-12-07T14:34:11;1.00;;;1.00;;
13197;SDS011;6664;52.514;13.440;2022-12-07T14:36:57;1.50;;;1.40;;
13197;SDS011;6664;52.514;13.440;2022-12-07T14:39:45;1.53;;;1.00;;
13197;SDS011;6664;52.514;13.440;2022-12-07T14:42:31;1.37;;;1.27;;
13197;SDS011;6664;52.514;13.440;2022-12-07T14:45:20;1.87;;;0.93;;
13197;SDS011;6664;52.514;13.440;2022-12-07T14:48:07;2.00;;;1.00;;
13197;SDS011;6664;52.514;13.440;2022-12-07T14:51:17;3.37;;;0.90;;
13197;SDS011;6664;52.514;13.440;2022-12-07T14:54:26;1.00;;;1.00;;
13197;SDS011;6664;52.514;13.440;2022-12-07T14:57:16;2.10;;;1.30;;
13197;SDS011;6664;52.514;13.440;2022-12-07T15:00:07;4.13;;;1.33;;
13197;SDS011;6664;52.514;13.440;2022-12-07T15:03:00;1.13;;;0.90;;
13197;SDS011;6664;52.514;13.440;2022-12-07T15:05:46;1.50;;;1.37;;
13197;SDS011;6664;52.514;13.440;2022-12-07T15:08:32;1.57;;;1.40;;
13197;SDS011;6664;52.514;13.440;2022-12-07T15:11:18;2.90;;;1.63;;
13197;SDS011;6664;52.514;13.440;2022-12-07T15:14:06;1.73;;;1.10;;
13197;SDS011;6664;52.514;13.440;2022-12-07T15:16:56;4.23;;;1.27;;
13197;SDS011;6664;52.514;13.440;2022-12-07T15:19:56;2.80;;;1.13;;
13197;SDS011;6664;52.514;13.440;2022-12-07T15:22:41;1.17;;;1.07;;
13197;SDS011;6664;52.514;13.440;2022-12-07T15:25:30;2.90;;;1.00;;
13197;SDS011;6664;52.514;13.440;2022-12-07T15:28:16;5.93;;;1.10;;
13197;SDS011;6664;52.514;13.440;2022-12-07T15:31:01;1.80;;;1.20;;
13197;SDS011;6664;52.514;13.440;2022-12-07T15:34:07;7.70;;;1.67;;
13197;SDS011;6664;52.514;13.440;2022-12-07T15:36:56;14.83;;;2.10;;
13197;SDS011;6664;52.514;13.440;2022-12-07T15:39:42;2.80;;;1.43;;
13197;SDS011;6664;52.514;13.440;2022-12-07T15:42:28;3.70;;;1.30;;
13197;SDS011;6664;52.514;13.440;2022-12-07T15:45:14;1.00;;;1.00;;
13197;SDS011;6664;52.514;13.440;2022-12-07T15:48:02;4.83;;;1.83;;
13197;SDS011;6664;52.514;13.440;2022-12-07T15:51:09;4.27;;;1.10;;
13197;SDS011;6664;52.514;13.440;2022-12-07T15:53:57;1.07;;;1.00;;
13197;SDS011;6664;52.514;13.440;2022-12-07T15:56:46;2.57;;;1.67;;
13197;SDS011;6664;52.514;13.440;2022-12-07T15:59:34;5.50;;;1.60;;
13197;SDS011;6664;52.514;13.440;2022-12-07T16:02:22;1.23;;;1.10;;
13197;SDS011;6664;52.514;13.440;2022-12-07T16:05:08;2.43;;;1.00;;
13197;SDS011;6664;52.514;13.440;2022-12-07T16:07:53;2.23;;;1.57;;
13197;SDS011;6664;52.514;13.440;2022-12-07T16:10:39;1.10;;;1.00;;
13197;SDS011;6664;52.514;13.440;2022-12-07T16:13:27;3.70;;;1.50;;
13197;SDS011;6664;52.514;13.440;2022-12-07T16:16:14;1.40;;;1.30;;
13197;SDS011;6664;52.514;13.440;2022-12-07T16:19:01;4.17;;;1.30;;
13197;SDS011;6664;52.514;13.440;2022-12-07T16:21:47;1.67;;;1.13;;
13197;SDS011;6664;52.514;13.440;2022-12-07T16:24:33;6.17;;;1.00;;
13197;SDS011;6664;52.514;13.440;2022-12-07T16:27:18;1.63;;;1.20;;
13197;SDS011;6664;52.514;13.440;2022-12-07T16:30:06;2.43;;;0.90;;
13197;SDS011;6664;52.514;13.440;2022-12-07T16:32:52;2.83;;;1.60;;
13197;SDS011;6664;52.514;13.440;2022-12-07T16:35:46;2.67;;;1.40;;
13197;SDS011;6664;52.514;13.440;2022-12-07T16:38:36;1.27;;;1.17;;
13197;SDS011;6664;52.514;13.440;2022-12-07T16:41:24;2.97;;;1.00;;
13197;SDS011;6664;52.514;13.440;2022-12-07T16:44:11;2.20;;;1.57;;
13197;SDS011;6664;52.514;13.440;2022-12-07T16:46:57;4.27;;;1.50;;
13197;SDS011;6664;52.514;13.440;2022-12-07T16:49:44;3.00;;;1.40;;
13197;SDS011;6664;52.514;13.440;2022-12-07T16:52:31;6.73;;;1.27;;
13197;SDS011;6664;52.514;13.440;2022-12-07T16:55:16;1.77;;;1.10;;
13197;SDS011;6664;52.514;13.440;2022-12-07T16:58:02;6.00;;;1.23;;
13197;SDS011;6664;52.514;13.440;2022-12-07T17:00:47;2.57;;;0.80;;
13197;SDS011;6664;52.514;13.440;2022-12-07T17:03:35;4.53;;;1.00;;
13197;SDS011;6664;52.514;13.440;2022-12-07T17:06:22;1.97;;;1.77;;
13197;SDS011;6664;52.514;13.440;2022-12-07T17:09:09;1.33;;;1.00;;
13197;SDS011;6664;52.514;13.440;2022-12-07T17:12:05;3.50;;;1.50;;
13197;SDS011;6664;52.514;13.440;2022-12-07T17:14:53;4.50;;;1.33;;
13197;SDS011;6664;52.514;13.440;2022-12-07T17:17:58;2.70;;;1.43;;
13197;SDS011;6664;52.514;13.440;2022-12-07T17:20:43;1.63;;;1.30;;
13197;SDS011;6664;52.514;13.440;2022-12-07T17:23:29;2.67;;;1.70;;
13197;SDS011;6664;52.514;13.440;2022-12-07T17:26:18;3.53;;;1.47;;
13197;SDS011;6664;52.514;13.440;2022-12-07T17:29:07;3.40;;;1.93;;
13197;SDS011;6664;52.514;13.440;2022-12-07T17:31:53;2.53;;;1.37;;
13197;SDS011;6664;52.514;13.440;2022-12-07T17:34:38;1.40;;;1.07;;
13197;SDS011;6664;52.514;13.440;2022-12-07T17:37:24;1.40;;;1.30;;
13197;SDS011;6664;52.514;13.440;2022-12-07T17:42:58;4.20;;;1.63;;
13197;SDS011;6664;52.514;13.440;2022-12-07T17:45:47;6.87;;;1.40;;
13197;SDS011;6664;52.514;13.440;2022-12-07T17:48:35;1.77;;;1.13;;
13197;SDS011;6664;52.514;13.440;2022-12-07T17:51:23;3.27;;;1.40;;
13197;SDS011;6664;52.514;13.440;2022-12-07T17:54:28;2.57;;;1.73;;
13197;SDS011;6664;52.514;13.440;2022-12-07T17:57:13;3.70;;;1.90;;
13197;SDS011;6664;52.514;13.440;2022-12-07T17:59:59;2.10;;;1.47;;
13197;SDS011;6664;52.514;13.440;2022-12-07T18:02:45;2.43;;;1.13;;
13197;SDS011;6664;52.514;13.440;2022-12-07T18:05:34;1.77;;;1.40;;
13197;SDS011;6664;52.514;13.440;2022-12-07T18:08:24;1.40;;;1.30;;
13197;SDS011;6664;52.514;13.440;2022-12-07T18:11:10;3.77;;;1.60;;
13197;SDS011;6664;52.514;13.440;2022-12-07T18:13:59;4.37;;;1.80;;
13197;SDS011;6664;52.514;13.440;2022-12-07T18:16:45;4.83;;;1.60;;
13197;SDS011;6664;52.514;13.440;2022-12-07T18:19:31;4.30;;;1.30;;
13197;SDS011;6664;52.514;13.440;2022-12-07T18:22:16;2.10;;;1.63;;
13197;SDS011;6664;52.514;13.440;2022-12-07T18:25:08;3.70;;;1.40;;
13197;SDS011;6664;52.514;13.440;2022-12-07T18:27:57;1.67;;;1.40;;
13197;SDS011;6664;52.514;13.440;2022-12-07T18:30:43;6.93;;;2.03;;
13197;SDS011;6664;52.514;13.440;2022-12-07T18:33:55;2.97;;;1.50;;
13197;SDS011;6664;52.514;13.440;2022-12-07T18:36:48;3.97;;;1.53;;
13197;SDS011;6664;52.514;13.440;2022-12-07T18:39:35;2.40;;;1.60;;
13197;SDS011;6664;52.514;13.440;2022-12-07T18:42:20;2.43;;;2.23;;
13197;SDS011;6664;52.514;13.440;2022-12-07T18:45:05;4.50;;;1.70;;
13197;SDS011;6664;52.514;13.440;2022-12-07T18:47:52;4.00;;;1.57;;
13197;SDS011;6664;52.514;13.440;2022-12-07T18:50:37;3.83;;;1.70;;
13197;SDS011;6664;52.514;13.440;2022-12-07T18:53:23;2.50;;;1.70;;
13197;SDS011;6664;52.514;13.440;2022-12-07T18:56:15;5.67;;;1.57;;
13197;SDS011;6664;52.514;13.440;2022-12-07T18:59:04;6.47;;;1.47;;
13197;SDS011;6664;52.514;13.440;2022-12-07T19:02:08;1.50;;;1.40;;
13197;SDS011;6664;52.514;13.440;2022-12-07T19:04:55;4.73;;;1.73;;
13197;SDS011;6664;52.514;13.440;2022-12-07T19:07:40;3.23;;;1.73;;
13197;SDS011;6664;52.514;13.440;2022-12-07T19:10:26;1.40;;;1.30;;
13197;SDS011;6664;52.514;13.440;2022-12-07T19:13:11;4.77;;;3.07;;